sensor_id;sensor_type;location;lat;lon;timestamp;P1;durP1;ratioP1;P2;durP2;ratioP2
66761;SDS011;53672;48.176;16.338;2024-02-23T00:04:51;8.10;;;3.67;;
66761;SDS011;53672;48.176;16.338;2024-02-23T00:09:54;9.68;;;4.10;;
66761;SDS011;53672;48.176;16.338;2024-02-23T00:14:56;9.60;;;4.43;;
66761;SDS011;53672;48.176;16.338;2024-02-23T00:19:57;11.15;;;5.63;;
66761;SDS011;53672;48.176;16.338;2024-02-23T00:25:00;11.17;;;5.57;;
66761;SDS011;53672;48.176;16.338;2024-02-23T00:30:02;11.00;;;5.40;;
66761;SDS011;53672;48.176;16.338;2024-02-23T00:35:05;14.68;;;7.30;;
66761;SDS011;53672;48.176;16.338;2024-02-23T00:40:10;11.83;;;6.53;;
66761;SDS011;53672;48.176;16.338;2024-02-23T00:45:12;12.07;;;6.20;;
66761;SDS011;53672;48.176;16.338;2024-02-23T00:50:14;13.67;;;6.83;;
66761;SDS011;53672;48.176;16.338;2024-02-23T00:55:17;13.25;;;6.85;;
66761;SDS011;53672;48.176;16.338;2024-02-23T01:00:19;12.18;;;6.43;;
66761;SDS011;53672;48.176;16.338;2024-02-23T01:05:20;14.53;;;7.47;;
66761;SDS011;53672;48.176;16.338;2024-02-23T01:10:23;11.90;;;6.70;;
66761;SDS011;53672;48.176;16.338;2024-02-23T01:15:25;13.50;;;7.10;;
66761;SDS011;53672;48.176;16.338;2024-02-23T01:20:27;12.70;;;6.65;;
66761;SDS011;53672;48.176;16.338;2024-02-23T01:25:30;14.82;;;7.47;;
66761;SDS011;53672;48.176;16.338;2024-02-23T01:30:31;13.37;;;6.87;;
66761;SDS011;53672;48.176;16.338;2024-02-23T01:35:33;12.90;;;6.70;;
66761;SDS011;53672;48.176;16.338;2024-02-23T01:40:37;11.57;;;6.80;;
66761;SDS011;53672;48.176;16.338;2024-02-23T01:45:39;11.48;;;6.03;;
66761;SDS011;53672;48.176;16.338;2024-02-23T01:50:41;13.90;;;6.47;;
66761;SDS011;53672;48.176;16.338;2024-02-23T01:55:45;13.43;;;6.37;;
66761;SDS011;53672;48.176;16.338;2024-02-23T02:00:47;12.02;;;6.60;;
66761;SDS011;53672;48.176;16.338;2024-02-23T02:05:49;14.40;;;7.03;;
66761;SDS011;53672;48.176;16.338;2024-02-23T02:10:54;11.27;;;5.97;;
66761;SDS011;53672;48.176;16.338;2024-02-23T02:15:55;11.48;;;6.05;;
66761;SDS011;53672;48.176;16.338;2024-02-23T02:20:58;14.47;;;6.43;;
66761;SDS011;53672;48.176;16.338;2024-02-23T02:26:00;12.52;;;6.03;;
66761;SDS011;53672;48.176;16.338;2024-02-23T02:31:02;13.50;;;6.73;;
66761;SDS011;53672;48.176;16.338;2024-02-23T02:36:04;11.35;;;6.22;;
66761;SDS011;53672;48.176;16.338;2024-02-23T02:41:08;14.18;;;7.00;;
66761;SDS011;53672;48.176;16.338;2024-02-23T02:46:10;14.50;;;7.30;;
66761;SDS011;53672;48.176;16.338;2024-02-23T02:51:12;13.63;;;6.68;;
66761;SDS011;53672;48.176;16.338;2024-02-23T02:56:15;11.30;;;6.17;;
66761;SDS011;53672;48.176;16.338;2024-02-23T03:01:16;11.90;;;6.43;;
66761;SDS011;53672;48.176;16.338;2024-02-23T03:06:18;12.80;;;7.05;;
66761;SDS011;53672;48.176;16.338;2024-02-23T03:11:21;11.33;;;6.20;;
66761;SDS011;53672;48.176;16.338;2024-02-23T03:16:22;12.32;;;6.50;;
66761;SDS011;53672;48.176;16.338;2024-02-23T03:21:26;12.53;;;6.10;;
66761;SDS011;53672;48.176;16.338;2024-02-23T03:26:29;12.20;;;5.85;;
66761;SDS011;53672;48.176;16.338;2024-02-23T03:31:30;13.75;;;6.20;;
66761;SDS011;53672;48.176;16.338;2024-02-23T03:36:32;12.07;;;6.67;;
66761;SDS011;53672;48.176;16.338;2024-02-23T03:41:35;12.13;;;5.90;;
66761;SDS011;53672;48.176;16.338;2024-02-23T03:46:36;11.33;;;5.60;;
66761;SDS011;53672;48.176;16.338;2024-02-23T03:51:38;13.00;;;6.20;;
66761;SDS011;53672;48.176;16.338;2024-02-23T03:56:42;13.25;;;6.60;;
66761;SDS011;53672;48.176;16.338;2024-02-23T04:01:43;9.60;;;5.33;;
66761;SDS011;53672;48.176;16.338;2024-02-23T04:06:45;13.55;;;5.80;;
66761;SDS011;53672;48.176;16.338;2024-02-23T04:11:48;11.40;;;6.33;;
66761;SDS011;53672;48.176;16.338;2024-02-23T04:16:50;13.02;;;7.13;;
66761;SDS011;53672;48.176;16.338;2024-02-23T04:21:51;16.73;;;8.38;;
66761;SDS011;53672;48.176;16.338;2024-02-23T04:26:54;12.83;;;6.53;;
66761;SDS011;53672;48.176;16.338;2024-02-23T04:31:56;9.73;;;4.97;;
66761;SDS011;53672;48.176;16.338;2024-02-23T04:36:58;7.70;;;3.90;;
66761;SDS011;53672;48.176;16.338;2024-02-23T04:42:00;6.65;;;2.90;;
66761;SDS011;53672;48.176;16.338;2024-02-23T04:47:02;5.00;;;2.10;;
66761;SDS011;53672;48.176;16.338;2024-02-23T04:52:05;4.60;;;1.63;;
66761;SDS011;53672;48.176;16.338;2024-02-23T04:57:08;3.45;;;1.30;;
66761;SDS011;53672;48.176;16.338;2024-02-23T05:02:10;3.67;;;1.00;;
66761;SDS011;53672;48.176;16.338;2024-02-23T05:07:11;3.80;;;1.08;;
66761;SDS011;53672;48.176;16.338;2024-02-23T05:12:14;2.70;;;0.80;;
66761;SDS011;53672;48.176;16.338;2024-02-23T05:17:16;3.10;;;0.97;;
66761;SDS011;53672;48.176;16.338;2024-02-23T05:22:18;2.60;;;0.70;;
66761;SDS011;53672;48.176;16.338;2024-02-23T05:27:21;2.73;;;0.83;;
66761;SDS011;53672;48.176;16.338;2024-02-23T05:32:23;3.72;;;1.15;;
66761;SDS011;53672;48.176;16.338;2024-02-23T05:37:24;3.05;;;0.80;;
66761;SDS011;53672;48.176;16.338;2024-02-23T05:42:28;2.37;;;0.57;;
66761;SDS011;53672;48.176;16.338;2024-02-23T05:47:30;2.45;;;0.60;;
66761;SDS011;53672;48.176;16.338;2024-02-23T05:52:31;3.10;;;0.80;;
66761;SDS011;53672;48.176;16.338;2024-02-23T05:57:34;2.33;;;0.60;;
66761;SDS011;53672;48.176;16.338;2024-02-23T06:02:36;2.65;;;0.70;;
66761;SDS011;53672;48.176;16.338;2024-02-23T06:07:38;3.23;;;0.80;;
66761;SDS011;53672;48.176;16.338;2024-02-23T06:12:41;3.15;;;0.82;;
66761;SDS011;53672;48.176;16.338;2024-02-23T06:17:43;2.77;;;0.70;;
66761;SDS011;53672;48.176;16.338;2024-02-23T06:22:44;1.88;;;0.40;;
66761;SDS011;53672;48.176;16.338;2024-02-23T06:27:47;2.10;;;0.50;;
66761;SDS011;53672;48.176;16.338;2024-02-23T06:32:49;2.40;;;0.50;;
66761;SDS011;53672;48.176;16.338;2024-02-23T06:37:51;2.28;;;0.50;;
66761;SDS011;53672;48.176;16.338;2024-02-23T06:42:53;2.60;;;0.97;;
66761;SDS011;53672;48.176;16.338;2024-02-23T06:47:55;1.88;;;0.40;;
66761;SDS011;53672;48.176;16.338;2024-02-23T06:52:57;2.15;;;0.50;;
66761;SDS011;53672;48.176;16.338;2024-02-23T06:57:59;3.50;;;0.90;;
66761;SDS011;53672;48.176;16.338;2024-02-23T07:03:01;2.05;;;0.50;;
66761;SDS011;53672;48.176;16.338;2024-02-23T07:08:04;2.40;;;0.43;;
66761;SDS011;53672;48.176;16.338;2024-02-23T07:13:07;1.77;;;0.30;;
66761;SDS011;53672;48.176;16.338;2024-02-23T07:18:09;2.10;;;0.40;;
66761;SDS011;53672;48.176;16.338;2024-02-23T07:23:11;2.13;;;0.53;;
66761;SDS011;53672;48.176;16.338;2024-02-23T07:28:14;2.60;;;0.77;;
66761;SDS011;53672;48.176;16.338;2024-02-23T07:33:18;3.43;;;0.87;;
66761;SDS011;53672;48.176;16.338;2024-02-23T07:38:20;3.55;;;0.80;;
66761;SDS011;53672;48.176;16.338;2024-02-23T07:43:22;2.40;;;0.50;;
66761;SDS011;53672;48.176;16.338;2024-02-23T07:48:26;2.23;;;0.50;;
66761;SDS011;53672;48.176;16.338;2024-02-23T07:53:27;3.30;;;0.80;;
66761;SDS011;53672;48.176;16.338;2024-02-23T07:58:30;4.50;;;0.90;;
66761;SDS011;53672;48.176;16.338;2024-02-23T08:03:32;3.92;;;1.20;;
66761;SDS011;53672;48.176;16.338;2024-02-23T08:08:33;3.50;;;1.00;;
66761;SDS011;53672;48.176;16.338;2024-02-23T08:13:38;2.87;;;0.80;;
66761;SDS011;53672;48.176;16.338;2024-02-23T08:18:40;3.10;;;0.90;;
66761;SDS011;53672;48.176;16.338;2024-02-23T08:23:42;2.90;;;0.70;;
66761;SDS011;53672;48.176;16.338;2024-02-23T08:28:46;3.28;;;0.60;;
66761;SDS011;53672;48.176;16.338;2024-02-23T08:33:48;5.43;;;0.80;;
66761;SDS011;53672;48.176;16.338;2024-02-23T08:38:49;2.63;;;0.70;;
66761;SDS011;53672;48.176;16.338;2024-02-23T08:43:52;2.75;;;0.65;;
66761;SDS011;53672;48.176;16.338;2024-02-23T08:48:55;2.40;;;0.60;;
66761;SDS011;53672;48.176;16.338;2024-02-23T08:53:57;2.65;;;0.60;;
66761;SDS011;53672;48.176;16.338;2024-02-23T08:59:04;2.28;;;0.60;;
66761;SDS011;53672;48.176;16.338;2024-02-23T09:04:06;3.50;;;0.90;;
66761;SDS011;53672;48.176;16.338;2024-02-23T09:09:07;2.85;;;0.80;;
66761;SDS011;53672;48.176;16.338;2024-02-23T09:14:11;2.40;;;0.70;;
66761;SDS011;53672;48.176;16.338;2024-02-23T09:19:12;2.45;;;0.60;;
66761;SDS011;53672;48.176;16.338;2024-02-23T09:24:14;2.65;;;0.70;;
66761;SDS011;53672;48.176;16.338;2024-02-23T09:29:17;3.30;;;0.60;;
66761;SDS011;53672;48.176;16.338;2024-02-23T09:34:18;4.03;;;0.70;;
66761;SDS011;53672;48.176;16.338;2024-02-23T09:39:20;2.60;;;0.60;;
66761;SDS011;53672;48.176;16.338;2024-02-23T09:44:23;3.40;;;0.60;;
66761;SDS011;53672;48.176;16.338;2024-02-23T09:49:27;2.13;;;0.50;;
66761;SDS011;53672;48.176;16.338;2024-02-23T09:54:29;2.33;;;0.57;;
66761;SDS011;53672;48.176;16.338;2024-02-23T09:59:32;4.05;;;0.60;;
66761;SDS011;53672;48.176;16.338;2024-02-23T10:04:36;2.07;;;0.50;;
66761;SDS011;53672;48.176;16.338;2024-02-23T10:09:39;1.63;;;0.40;;
66761;SDS011;53672;48.176;16.338;2024-02-23T10:14:42;2.65;;;0.50;;
66761;SDS011;53672;48.176;16.338;2024-02-23T10:19:44;3.50;;;0.50;;
66761;SDS011;53672;48.176;16.338;2024-02-23T10:24:45;1.95;;;0.50;;
66761;SDS011;53672;48.176;16.338;2024-02-23T10:29:50;1.70;;;0.40;;
66761;SDS011;53672;48.176;16.338;2024-02-23T10:34:52;2.03;;;0.40;;
66761;SDS011;53672;48.176;16.338;2024-02-23T10:39:57;2.40;;;0.50;;
66761;SDS011;53672;48.176;16.338;2024-02-23T10:45:02;2.20;;;0.50;;
66761;SDS011;53672;48.176;16.338;2024-02-23T10:50:05;2.70;;;0.70;;
66761;SDS011;53672;48.176;16.338;2024-02-23T10:55:08;2.10;;;0.53;;
66761;SDS011;53672;48.176;16.338;2024-02-23T11:00:12;2.50;;;0.60;;
66761;SDS011;53672;48.176;16.338;2024-02-23T11:05:16;2.78;;;0.70;;
66761;SDS011;53672;48.176;16.338;2024-02-23T11:10:21;3.47;;;0.80;;
66761;SDS011;53672;48.176;16.338;2024-02-23T11:15:29;2.90;;;0.80;;
66761;SDS011;53672;48.176;16.338;2024-02-23T11:20:34;2.77;;;0.80;;
66761;SDS011;53672;48.176;16.338;2024-02-23T11:25:36;2.92;;;0.90;;
66761;SDS011;53672;48.176;16.338;2024-02-23T11:30:39;3.90;;;1.10;;
66761;SDS011;53672;48.176;16.338;2024-02-23T11:35:46;4.87;;;1.37;;
66761;SDS011;53672;48.176;16.338;2024-02-23T11:40:49;3.53;;;1.10;;
66761;SDS011;53672;48.176;16.338;2024-02-23T11:45:53;3.40;;;0.97;;
66761;SDS011;53672;48.176;16.338;2024-02-23T11:50:55;4.22;;;1.70;;
66761;SDS011;53672;48.176;16.338;2024-02-23T11:55:57;4.28;;;1.30;;
66761;SDS011;53672;48.176;16.338;2024-02-23T12:01:00;4.37;;;1.37;;
66761;SDS011;53672;48.176;16.338;2024-02-23T12:06:03;4.07;;;1.10;;
66761;SDS011;53672;48.176;16.338;2024-02-23T12:11:05;3.80;;;1.20;;
66761;SDS011;53672;48.176;16.338;2024-02-23T12:16:10;3.17;;;1.00;;
66761;SDS011;53672;48.176;16.338;2024-02-23T12:21:11;4.10;;;1.00;;
66761;SDS011;53672;48.176;16.338;2024-02-23T12:26:13;4.67;;;1.13;;
66761;SDS011;53672;48.176;16.338;2024-02-23T12:31:17;3.72;;;1.20;;
66761;SDS011;53672;48.176;16.338;2024-02-23T12:36:25;3.63;;;1.33;;
66761;SDS011;53672;48.176;16.338;2024-02-23T12:41:27;3.70;;;1.20;;
66761;SDS011;53672;48.176;16.338;2024-02-23T12:46:30;3.92;;;1.20;;
66761;SDS011;53672;48.176;16.338;2024-02-23T12:51:32;4.77;;;1.40;;
66761;SDS011;53672;48.176;16.338;2024-02-23T12:56:33;4.32;;;1.60;;
66761;SDS011;53672;48.176;16.338;2024-02-23T13:01:37;4.13;;;1.63;;
66761;SDS011;53672;48.176;16.338;2024-02-23T13:06:39;4.88;;;1.85;;
66761;SDS011;53672;48.176;16.338;2024-02-23T13:11:42;4.88;;;1.50;;
66761;SDS011;53672;48.176;16.338;2024-02-23T13:16:47;5.00;;;1.83;;
66761;SDS011;53672;48.176;16.338;2024-02-23T13:21:48;5.25;;;2.10;;
66761;SDS011;53672;48.176;16.338;2024-02-23T13:26:50;5.60;;;1.77;;
66761;SDS011;53672;48.176;16.338;2024-02-23T13:31:53;6.28;;;2.10;;
66761;SDS011;53672;48.176;16.338;2024-02-23T13:36:55;5.97;;;2.10;;
66761;SDS011;53672;48.176;16.338;2024-02-23T13:41:56;6.87;;;2.07;;
66761;SDS011;53672;48.176;16.338;2024-02-23T13:46:59;4.85;;;1.83;;
66761;SDS011;53672;48.176;16.338;2024-02-23T13:52:01;6.63;;;2.30;;
66761;SDS011;53672;48.176;16.338;2024-02-23T13:57:02;7.68;;;2.40;;
66761;SDS011;53672;48.176;16.338;2024-02-23T14:02:06;6.88;;;2.40;;
66761;SDS011;53672;48.176;16.338;2024-02-23T14:07:07;7.47;;;2.30;;
66761;SDS011;53672;48.176;16.338;2024-02-23T14:12:09;6.63;;;2.50;;
66761;SDS011;53672;48.176;16.338;2024-02-23T14:17:12;6.63;;;2.57;;
66761;SDS011;53672;48.176;16.338;2024-02-23T14:22:14;8.50;;;2.45;;
66761;SDS011;53672;48.176;16.338;2024-02-23T14:27:15;7.78;;;2.83;;
66761;SDS011;53672;48.176;16.338;2024-02-23T14:32:18;5.73;;;2.10;;
66761;SDS011;53672;48.176;16.338;2024-02-23T14:37:21;4.93;;;2.28;;
66761;SDS011;53672;48.176;16.338;2024-02-23T14:42:23;6.77;;;2.30;;
66761;SDS011;53672;48.176;16.338;2024-02-23T14:47:26;8.10;;;2.90;;
66761;SDS011;53672;48.176;16.338;2024-02-23T14:52:27;7.53;;;3.08;;
66761;SDS011;53672;48.176;16.338;2024-02-23T14:57:29;7.10;;;2.83;;
66761;SDS011;53672;48.176;16.338;2024-02-23T15:02:32;7.05;;;3.08;;
66761;SDS011;53672;48.176;16.338;2024-02-23T15:07:34;7.43;;;3.10;;
66761;SDS011;53672;48.176;16.338;2024-02-23T15:12:35;6.18;;;2.55;;
66761;SDS011;53672;48.176;16.338;2024-02-23T15:17:38;6.13;;;2.70;;
66761;SDS011;53672;48.176;16.338;2024-02-23T15:22:42;7.07;;;2.37;;
66761;SDS011;53672;48.176;16.338;2024-02-23T15:27:45;5.63;;;2.47;;
66761;SDS011;53672;48.176;16.338;2024-02-23T15:32:50;6.47;;;2.63;;
66761;SDS011;53672;48.176;16.338;2024-02-23T15:37:51;6.13;;;2.88;;
66761;SDS011;53672;48.176;16.338;2024-02-23T15:42:53;5.38;;;2.53;;
66761;SDS011;53672;48.176;16.338;2024-02-23T15:47:56;6.97;;;2.70;;
66761;SDS011;53672;48.176;16.338;2024-02-23T15:52:58;7.03;;;2.97;;
66761;SDS011;53672;48.176;16.338;2024-02-23T15:57:59;6.67;;;2.73;;
66761;SDS011;53672;48.176;16.338;2024-02-23T16:03:05;6.43;;;2.90;;
66761;SDS011;53672;48.176;16.338;2024-02-23T16:08:06;5.90;;;3.05;;
66761;SDS011;53672;48.176;16.338;2024-02-23T16:13:08;8.90;;;3.30;;
66761;SDS011;53672;48.176;16.338;2024-02-23T16:18:11;6.60;;;3.08;;
66761;SDS011;53672;48.176;16.338;2024-02-23T16:23:12;6.13;;;3.00;;
66761;SDS011;53672;48.176;16.338;2024-02-23T16:28:14;6.97;;;3.17;;
66761;SDS011;53672;48.176;16.338;2024-02-23T16:33:17;6.80;;;2.90;;
66761;SDS011;53672;48.176;16.338;2024-02-23T16:38:19;6.53;;;3.00;;
66761;SDS011;53672;48.176;16.338;2024-02-23T16:43:21;6.18;;;3.35;;
66761;SDS011;53672;48.176;16.338;2024-02-23T16:48:24;9.67;;;3.70;;
66761;SDS011;53672;48.176;16.338;2024-02-23T16:53:25;7.40;;;3.40;;
66761;SDS011;53672;48.176;16.338;2024-02-23T16:58:27;6.97;;;3.05;;
66761;SDS011;53672;48.176;16.338;2024-02-23T17:03:34;7.03;;;3.00;;
66761;SDS011;53672;48.176;16.338;2024-02-23T17:08:36;7.57;;;3.72;;
66761;SDS011;53672;48.176;16.338;2024-02-23T17:13:40;9.30;;;3.73;;
66761;SDS011;53672;48.176;16.338;2024-02-23T17:18:44;8.27;;;3.50;;
66761;SDS011;53672;48.176;16.338;2024-02-23T17:23:47;7.35;;;3.53;;
66761;SDS011;53672;48.176;16.338;2024-02-23T17:28:48;7.17;;;3.60;;
66761;SDS011;53672;48.176;16.338;2024-02-23T17:33:51;9.95;;;3.80;;
66761;SDS011;53672;48.176;16.338;2024-02-23T17:38:53;9.97;;;4.37;;
66761;SDS011;53672;48.176;16.338;2024-02-23T17:43:54;8.90;;;4.20;;
66761;SDS011;53672;48.176;16.338;2024-02-23T17:48:57;10.20;;;3.90;;
66761;SDS011;53672;48.176;16.338;2024-02-23T17:53:59;8.37;;;3.97;;
66761;SDS011;53672;48.176;16.338;2024-02-23T17:59:00;9.10;;;4.38;;
66761;SDS011;53672;48.176;16.338;2024-02-23T18:04:04;8.53;;;4.40;;
66761;SDS011;53672;48.176;16.338;2024-02-23T18:09:05;9.40;;;4.80;;
66761;SDS011;53672;48.176;16.338;2024-02-23T18:14:07;9.93;;;4.57;;
66761;SDS011;53672;48.176;16.338;2024-02-23T18:19:10;9.60;;;4.37;;
66761;SDS011;53672;48.176;16.338;2024-02-23T18:24:12;12.70;;;4.70;;
66761;SDS011;53672;48.176;16.338;2024-02-23T18:29:13;9.23;;;4.60;;
66761;SDS011;53672;48.176;16.338;2024-02-23T18:34:16;8.45;;;4.10;;
66761;SDS011;53672;48.176;16.338;2024-02-23T18:39:18;9.15;;;4.45;;
66761;SDS011;53672;48.176;16.338;2024-02-23T18:44:19;11.13;;;4.90;;
66761;SDS011;53672;48.176;16.338;2024-02-23T18:49:22;11.90;;;5.57;;
66761;SDS011;53672;48.176;16.338;2024-02-23T18:54:26;8.13;;;3.83;;
66761;SDS011;53672;48.176;16.338;2024-02-23T18:59:27;4.45;;;2.10;;
66761;SDS011;53672;48.176;16.338;2024-02-23T19:04:30;4.75;;;2.08;;
66761;SDS011;53672;48.176;16.338;2024-02-23T19:09:33;4.10;;;1.73;;
66761;SDS011;53672;48.176;16.338;2024-02-23T19:14:36;3.85;;;1.50;;
66761;SDS011;53672;48.176;16.338;2024-02-23T19:19:39;3.33;;;1.33;;
66761;SDS011;53672;48.176;16.338;2024-02-23T19:24:41;4.82;;;1.52;;
66761;SDS011;53672;48.176;16.338;2024-02-23T19:29:43;36.33;;;13.90;;
66761;SDS011;53672;48.176;16.338;2024-02-23T19:34:46;5.63;;;2.30;;
66761;SDS011;53672;48.176;16.338;2024-02-23T19:39:47;4.25;;;1.70;;
66761;SDS011;53672;48.176;16.338;2024-02-23T19:44:50;4.33;;;1.70;;
66761;SDS011;53672;48.176;16.338;2024-02-23T19:49:53;6.72;;;3.20;;
66761;SDS011;53672;48.176;16.338;2024-02-23T19:54:55;6.80;;;3.45;;
66761;SDS011;53672;48.176;16.338;2024-02-23T19:59:56;4.00;;;1.63;;
66761;SDS011;53672;48.176;16.338;2024-02-23T20:05:00;3.17;;;1.20;;
66761;SDS011;53672;48.176;16.338;2024-02-23T20:10:02;3.73;;;1.30;;
66761;SDS011;53672;48.176;16.338;2024-02-23T20:15:05;10.43;;;4.65;;
66761;SDS011;53672;48.176;16.338;2024-02-23T20:20:10;9.13;;;5.35;;
66761;SDS011;53672;48.176;16.338;2024-02-23T20:25:12;16.37;;;8.93;;
66761;SDS011;53672;48.176;16.338;2024-02-23T20:30:13;3.78;;;1.30;;
66761;SDS011;53672;48.176;16.338;2024-02-23T20:35:17;5.40;;;2.63;;
66761;SDS011;53672;48.176;16.338;2024-02-23T20:40:18;2.45;;;0.77;;
66761;SDS011;53672;48.176;16.338;2024-02-23T20:45:20;5.07;;;0.75;;
66761;SDS011;53672;48.176;16.338;2024-02-23T20:50:24;2.23;;;0.50;;
66761;SDS011;53672;48.176;16.338;2024-02-23T20:55:25;3.05;;;0.60;;
66761;SDS011;53672;48.176;16.338;2024-02-23T21:00:27;3.10;;;0.90;;
66761;SDS011;53672;48.176;16.338;2024-02-23T21:05:30;2.75;;;0.60;;
66761;SDS011;53672;48.176;16.338;2024-02-23T21:10:32;2.92;;;0.90;;
66761;SDS011;53672;48.176;16.338;2024-02-23T21:15:34;2.17;;;0.50;;
66761;SDS011;53672;48.176;16.338;2024-02-23T21:20:39;2.75;;;0.50;;
66761;SDS011;53672;48.176;16.338;2024-02-23T21:25:43;2.13;;;0.50;;
66761;SDS011;53672;48.176;16.338;2024-02-23T21:30:44;1.55;;;0.30;;
66761;SDS011;53672;48.176;16.338;2024-02-23T21:35:51;2.38;;;0.40;;
66761;SDS011;53672;48.176;16.338;2024-02-23T21:40:53;1.90;;;0.40;;
66761;SDS011;53672;48.176;16.338;2024-02-23T21:45:55;1.70;;;0.40;;
66761;SDS011;53672;48.176;16.338;2024-02-23T21:50:58;2.10;;;0.50;;
66761;SDS011;53672;48.176;16.338;2024-02-23T21:56:00;2.08;;;0.40;;
66761;SDS011;53672;48.176;16.338;2024-02-23T22:01:03;2.65;;;0.43;;
66761;SDS011;53672;48.176;16.338;2024-02-23T22:06:06;2.43;;;0.50;;
66761;SDS011;53672;48.176;16.338;2024-02-23T22:11:08;1.40;;;0.30;;
66761;SDS011;53672;48.176;16.338;2024-02-23T22:16:09;1.30;;;0.20;;
66761;SDS011;53672;48.176;16.338;2024-02-23T22:21:12;1.45;;;0.30;;
66761;SDS011;53672;48.176;16.338;2024-02-23T22:26:15;2.72;;;0.43;;
66761;SDS011;53672;48.176;16.338;2024-02-23T22:31:16;2.50;;;0.50;;
66761;SDS011;53672;48.176;16.338;2024-02-23T22:36:19;1.85;;;0.40;;
66761;SDS011;53672;48.176;16.338;2024-02-23T22:41:21;2.27;;;0.57;;
66761;SDS011;53672;48.176;16.338;2024-02-23T22:46:22;1.73;;;0.38;;
66761;SDS011;53672;48.176;16.338;2024-02-23T22:51:25;1.65;;;0.30;;
66761;SDS011;53672;48.176;16.338;2024-02-23T22:56:27;1.37;;;0.30;;
66761;SDS011;53672;48.176;16.338;2024-02-23T23:01:28;2.83;;;0.50;;
66761;SDS011;53672;48.176;16.338;2024-02-23T23:06:31;1.57;;;0.30;;
66761;SDS011;53672;48.176;16.338;2024-02-23T23:11:34;1.80;;;0.40;;
66761;SDS011;53672;48.176;16.338;2024-02-23T23:16:36;2.53;;;0.50;;
66761;SDS011;53672;48.176;16.338;2024-02-23T23:21:39;2.57;;;0.63;;
66761;SDS011;53672;48.176;16.338;2024-02-23T23:26:40;2.75;;;0.77;;
66761;SDS011;53672;48.176;16.338;2024-02-23T23:31:42;2.17;;;0.60;;
66761;SDS011;53672;48.176;16.338;2024-02-23T23:36:45;1.60;;;0.32;;
66761;SDS011;53672;48.176;16.338;2024-02-23T23:41:49;1.85;;;0.30;;
66761;SDS011;53672;48.176;16.338;2024-02-23T23:46:51;1.37;;;0.20;;
66761;SDS011;53672;48.176;16.338;2024-02-23T23:51:54;1.45;;;0.30;;
66761;SDS011;53672;48.176;16.338;2024-02-23T23:56:55;1.83;;;0.20;;
